createdAt,value
2023-06-23T00:00:49.194Z,10.50
2023-06-23T00:03:17.366Z,8.80
2023-06-23T00:05:45.516Z,9.52
2023-06-23T00:10:41.607Z,10.43
2023-06-23T00:13:10.395Z,9.35
2023-06-23T00:15:38.839Z,10.10
2023-06-23T00:18:08.480Z,11.13
2023-06-23T00:20:37.382Z,10.45
2023-06-23T00:23:05.626Z,10.07
2023-06-23T00:25:33.989Z,10.75
2023-06-23T00:28:02.314Z,9.25
2023-06-23T00:30:30.540Z,10.60
2023-06-23T00:33:01.484Z,11.27
2023-06-23T00:35:33.267Z,9.77
2023-06-23T00:38:01.645Z,10.10
2023-06-23T00:42:58.481Z,8.65
2023-06-23T00:47:55.229Z,9.98
2023-06-23T00:50:25.685Z,10.73
2023-06-23T00:52:55.750Z,10.73
2023-06-23T00:55:27.059Z,10.88
2023-06-23T00:57:56.746Z,10.05
2023-06-23T01:00:26.738Z,10.90
2023-06-23T01:03:00.820Z,10.38
2023-06-23T01:05:32.403Z,11.63
2023-06-23T01:08:15.524Z,10.98
2023-06-23T01:10:49.360Z,11.90
2023-06-23T01:13:25.124Z,11.00
2023-06-23T01:15:58.313Z,12.52
2023-06-23T01:18:34.738Z,10.52
2023-06-23T01:21:07.913Z,12.25
2023-06-23T01:23:55.949Z,12.40
2023-06-23T01:26:38.689Z,10.15
2023-06-23T01:29:11.303Z,11.48
2023-06-23T01:31:45.960Z,11.00
2023-06-23T01:34:24.088Z,11.05
2023-06-23T01:36:57.051Z,11.35
2023-06-23T01:39:28.235Z,11.90
2023-06-23T01:42:02.503Z,12.52
2023-06-23T01:44:34.312Z,11.25
2023-06-23T01:47:05.717Z,12.43
2023-06-23T01:49:37.597Z,11.23
2023-06-23T01:52:08.812Z,12.13
2023-06-23T01:54:42.020Z,12.65
2023-06-23T01:57:14.696Z,14.30
2023-06-23T01:59:46.428Z,13.52
2023-06-23T02:02:17.591Z,12.13
2023-06-23T02:04:48.346Z,10.55
2023-06-23T02:07:20.805Z,11.85
2023-06-23T02:09:50.170Z,10.48
2023-06-23T02:12:19.673Z,10.88
2023-06-23T02:14:51.199Z,11.35
2023-06-23T02:17:23.028Z,11.23
2023-06-23T02:19:53.838Z,12.38
2023-06-23T02:22:25.371Z,10.82
2023-06-23T02:24:54.178Z,10.38
2023-06-23T02:27:23.967Z,9.68
2023-06-23T02:29:55.899Z,9.75
2023-06-23T02:32:26.917Z,9.77
2023-06-23T02:34:56.023Z,9.52
2023-06-23T02:37:26.509Z,10.43
2023-06-23T02:39:58.078Z,10.27
2023-06-23T02:42:33.014Z,11.07
2023-06-23T02:45:07.659Z,9.65
2023-06-23T02:47:39.917Z,8.75
2023-06-23T02:50:13.305Z,11.05
2023-06-23T02:52:46.094Z,9.70
2023-06-23T02:55:18.751Z,10.05
2023-06-23T02:57:50.427Z,10.65
2023-06-23T03:00:24.376Z,9.40
2023-06-23T03:02:58.209Z,9.75
2023-06-23T03:05:27.596Z,10.40
2023-06-23T03:07:56.274Z,9.35
2023-06-23T03:10:24.542Z,11.05
2023-06-23T03:12:52.796Z,10.60
2023-06-23T03:17:57.439Z,10.00
2023-06-23T03:20:31.145Z,10.23
2023-06-23T03:23:10.725Z,10.88
2023-06-23T03:25:41.306Z,11.02
2023-06-23T03:28:13.020Z,9.25
2023-06-23T03:30:48.149Z,10.27
2023-06-23T03:33:21.816Z,11.07
2023-06-23T03:35:51.582Z,11.80
2023-06-23T03:38:23.696Z,10.25
2023-06-23T03:41:02.278Z,9.88
2023-06-23T03:43:34.975Z,10.27
2023-06-23T03:46:10.868Z,10.75
2023-06-23T03:48:41.595Z,10.10
2023-06-23T03:51:14.771Z,11.23
2023-06-23T03:53:44.666Z,10.07
2023-06-23T03:56:14.883Z,10.98
2023-06-23T03:58:45.565Z,9.40
2023-06-23T04:01:17.522Z,11.00
2023-06-23T04:03:47.098Z,9.65
2023-06-23T04:06:17.247Z,8.73
2023-06-23T04:08:48.242Z,9.60
2023-06-23T04:11:19.078Z,9.88
2023-06-23T04:13:49.506Z,9.00
2023-06-23T04:16:20.044Z,8.90
2023-06-23T04:18:51.100Z,7.93
2023-06-23T04:21:20.679Z,8.93
2023-06-23T04:23:50.311Z,7.70
2023-06-23T04:26:19.377Z,8.23
2023-06-23T04:28:49.148Z,9.13
2023-06-23T04:31:22.366Z,9.05
2023-06-23T04:33:50.743Z,8.82
2023-06-23T04:36:22.424Z,8.55
2023-06-23T04:38:55.637Z,9.23
2023-06-23T04:41:27.113Z,7.95
2023-06-23T04:43:58.459Z,8.57
2023-06-23T04:46:32.679Z,8.77
2023-06-23T04:49:04.561Z,9.50
2023-06-23T04:51:36.869Z,9.38
2023-06-23T04:54:11.932Z,8.38
2023-06-23T04:56:42.704Z,8.65
2023-06-23T04:59:13.061Z,9.25
2023-06-23T05:01:45.361Z,8.43
2023-06-23T05:04:16.334Z,9.80
2023-06-23T05:06:47.855Z,8.57
2023-06-23T05:09:18.063Z,10.10
2023-06-23T05:11:47.710Z,9.95
2023-06-23T05:14:18.922Z,9.68
2023-06-23T05:16:50.457Z,9.07
2023-06-23T05:19:19.120Z,8.57
2023-06-23T05:21:47.585Z,8.30
2023-06-23T05:24:17.785Z,9.05
2023-06-23T05:26:47.302Z,7.97
2023-06-23T05:29:19.325Z,7.60
2023-06-23T05:31:51.843Z,9.10
2023-06-23T05:34:22.675Z,7.95
2023-06-23T05:36:54.592Z,9.27
2023-06-23T05:39:25.707Z,8.55
2023-06-23T05:41:53.834Z,7.40
2023-06-23T05:46:55.582Z,6.57
2023-06-23T05:49:26.095Z,7.30
2023-06-23T05:51:58.297Z,5.30
2023-06-23T05:54:30.653Z,7.05
2023-06-23T05:57:02.742Z,7.38
2023-06-23T05:59:37.693Z,6.55
2023-06-23T06:02:10.803Z,6.10
2023-06-23T06:04:44.013Z,6.97
2023-06-23T06:07:13.965Z,6.88
2023-06-23T06:09:43.518Z,8.60
2023-06-23T06:12:13.462Z,8.18
2023-06-23T06:14:43.762Z,9.50
2023-06-23T06:17:15.218Z,9.10
2023-06-23T06:19:45.125Z,10.43
2023-06-23T06:22:15.868Z,9.50
2023-06-23T06:24:47.022Z,9.80
2023-06-23T06:27:17.264Z,9.75
2023-06-23T06:29:46.598Z,9.45
2023-06-23T06:32:17.336Z,11.02
2023-06-23T06:34:46.394Z,8.45
2023-06-23T06:37:15.806Z,10.23
2023-06-23T06:39:46.517Z,10.93
2023-06-23T06:42:14.758Z,7.60
2023-06-23T06:44:43.411Z,9.23
2023-06-23T06:47:13.579Z,8.73
2023-06-23T06:49:44.166Z,8.18
2023-06-23T06:52:12.845Z,6.38
2023-06-23T06:54:42.287Z,7.60
2023-06-23T06:57:10.885Z,7.70
2023-06-23T06:59:39.247Z,8.85
2023-06-23T07:02:08.877Z,8.68
2023-06-23T07:04:38.776Z,7.85
2023-06-23T07:07:08.577Z,10.38
2023-06-23T07:09:36.686Z,8.80
2023-06-23T07:12:05.542Z,8.93
2023-06-23T07:14:33.712Z,7.35
2023-06-23T07:17:02.039Z,7.95
2023-06-23T07:19:30.235Z,8.32
2023-06-23T07:21:58.554Z,8.65
2023-06-23T07:24:28.319Z,8.88
2023-06-23T07:26:56.580Z,7.30
2023-06-23T07:29:24.542Z,6.80
2023-06-23T07:31:53.024Z,7.53
2023-06-23T07:34:21.360Z,7.20
2023-06-23T07:36:49.833Z,8.15
2023-06-23T07:39:18.078Z,8.20
2023-06-23T07:41:49.956Z,8.45
2023-06-23T07:44:18.389Z,3.47
2023-06-23T07:46:46.497Z,3.40
2023-06-23T07:49:14.963Z,4.40
2023-06-23T07:51:43.172Z,6.28
2023-06-23T07:54:11.431Z,5.47
2023-06-23T07:56:39.702Z,4.97
2023-06-23T07:59:09.253Z,4.90
2023-06-23T08:01:37.433Z,5.32
2023-06-23T08:04:06.217Z,4.32
2023-06-23T08:06:34.632Z,6.15
2023-06-23T08:09:03.167Z,6.10
2023-06-23T08:11:31.292Z,4.40
2023-06-23T08:14:01.393Z,4.53
2023-06-23T08:16:31.122Z,5.28
2023-06-23T08:18:59.594Z,6.10
2023-06-23T08:21:27.870Z,5.65
2023-06-23T08:23:56.136Z,5.30
2023-06-23T08:26:24.496Z,4.60
2023-06-23T08:28:52.630Z,4.18
2023-06-23T08:31:20.858Z,5.90
2023-06-23T08:33:50.606Z,5.82
2023-06-23T08:36:18.701Z,5.68
2023-06-23T08:38:46.984Z,6.05
2023-06-23T08:41:15.072Z,4.68
2023-06-23T08:43:46.900Z,5.95
2023-06-23T08:46:16.448Z,5.82
2023-06-23T08:48:48.388Z,6.60
2023-06-23T08:51:18.070Z,5.13
2023-06-23T08:53:47.365Z,5.55
2023-06-23T08:56:16.502Z,6.95
2023-06-23T08:58:44.793Z,5.38
2023-06-23T09:01:13.086Z,7.20
2023-06-23T09:03:41.273Z,4.97
2023-06-23T09:06:10.908Z,4.50
2023-06-23T09:08:40.864Z,4.43
2023-06-23T09:11:09.389Z,4.65
2023-06-23T09:13:38.378Z,4.95
2023-06-23T09:16:07.200Z,4.68
2023-06-23T09:18:40.733Z,3.95
2023-06-23T09:21:10.100Z,4.20
2023-06-23T09:23:38.462Z,3.53
2023-06-23T09:26:08.167Z,4.70
2023-06-23T09:28:38.361Z,3.72
2023-06-23T09:31:14.961Z,4.28
2023-06-23T09:33:50.800Z,3.67
2023-06-23T09:36:19.635Z,4.15
2023-06-23T09:38:50.042Z,4.38
2023-06-23T09:41:20.115Z,3.72
2023-06-23T09:43:51.985Z,4.43
2023-06-23T09:46:22.240Z,3.63
2023-06-23T09:48:53.158Z,4.55
2023-06-23T09:51:21.563Z,3.60
2023-06-23T09:53:50.754Z,3.83
2023-06-23T09:56:21.628Z,3.75
2023-06-23T09:58:51.559Z,4.13
2023-06-23T10:01:21.410Z,3.58
2023-06-23T10:03:51.280Z,5.10
2023-06-23T10:06:24.920Z,4.65
2023-06-23T10:08:56.931Z,4.18
2023-06-23T10:11:36.873Z,4.95
2023-06-23T10:14:10.545Z,4.43
2023-06-23T10:16:42.314Z,4.53
2023-06-23T10:19:10.733Z,4.57
2023-06-23T10:21:39.097Z,6.38
2023-06-23T10:24:10.388Z,3.67
2023-06-23T10:26:40.045Z,5.13
2023-06-23T10:29:10.307Z,9.52
2023-06-23T10:31:39.878Z,5.63
2023-06-23T10:34:11.770Z,4.85
2023-06-23T10:36:42.362Z,3.88
2023-06-23T10:39:12.850Z,5.40
2023-06-23T10:41:47.159Z,3.33
2023-06-23T10:44:17.554Z,3.63
2023-06-23T10:46:46.404Z,5.55
2023-06-23T10:49:19.223Z,4.47
2023-06-23T10:51:50.081Z,4.85
2023-06-23T10:54:28.769Z,4.95
2023-06-23T10:56:58.578Z,5.75
2023-06-23T10:59:29.203Z,4.97
2023-06-23T11:02:19.742Z,5.40
2023-06-23T11:04:56.624Z,5.18
2023-06-23T11:07:25.973Z,4.88
2023-06-23T11:10:05.973Z,7.80
2023-06-23T11:12:41.737Z,4.28
2023-06-23T11:15:16.968Z,5.95
2023-06-23T11:17:46.796Z,4.82
2023-06-23T11:20:29.535Z,3.97
2023-06-23T11:23:00.380Z,3.95
2023-06-23T11:25:30.674Z,7.95
2023-06-23T11:28:37.795Z,3.70
2023-06-23T11:31:09.330Z,3.45
2023-06-23T11:33:39.337Z,4.43
2023-06-23T11:36:09.105Z,3.33
2023-06-23T11:38:38.727Z,4.00
2023-06-23T11:41:07.044Z,3.83
2023-06-23T11:43:39.431Z,2.20
2023-06-23T11:46:11.238Z,3.05
2023-06-23T11:48:41.019Z,2.55
2023-06-23T11:51:11.422Z,2.40
2023-06-23T11:53:41.476Z,2.15
2023-06-23T11:56:10.334Z,2.45
2023-06-23T11:58:40.593Z,1.70
2023-06-23T12:01:10.649Z,2.65
2023-06-23T12:03:40.284Z,2.67
2023-06-23T12:06:14.342Z,2.60
2023-06-23T12:08:42.608Z,1.80
2023-06-23T12:11:11.294Z,1.77
2023-06-23T12:13:41.008Z,2.05
2023-06-23T12:16:09.251Z,3.95
2023-06-23T12:18:45.103Z,1.95
2023-06-23T12:21:14.869Z,1.45
2023-06-23T12:23:44.759Z,1.80
2023-06-23T12:26:13.709Z,2.13
2023-06-23T12:28:43.611Z,1.55
2023-06-23T12:31:11.849Z,1.40
2023-06-23T12:33:41.425Z,3.28
2023-06-23T12:36:10.509Z,1.27
2023-06-23T12:38:39.965Z,1.73
2023-06-23T12:41:18.078Z,2.08
2023-06-23T12:43:49.314Z,3.58
2023-06-23T12:46:17.610Z,1.42
2023-06-23T12:48:46.979Z,1.60
2023-06-23T12:51:15.151Z,1.05
2023-06-23T12:53:43.722Z,1.45
2023-06-23T12:56:13.020Z,1.50
2023-06-23T12:58:41.176Z,1.95
2023-06-23T13:01:10.709Z,2.58
2023-06-23T13:03:39.003Z,1.45
2023-06-23T13:06:07.403Z,1.38
2023-06-23T13:08:35.793Z,1.05
2023-06-23T13:11:04.054Z,0.85
2023-06-23T13:13:32.305Z,2.08
2023-06-23T13:16:01.344Z,1.40
2023-06-23T13:18:31.012Z,1.30
2023-06-23T13:20:59.292Z,1.80
2023-06-23T13:23:28.497Z,2.42
2023-06-23T13:25:56.861Z,1.48
2023-06-23T13:28:25.117Z,1.13
2023-06-23T13:30:53.283Z,1.50
2023-06-23T13:33:23.385Z,1.83
2023-06-23T13:35:53.146Z,1.33
2023-06-23T13:38:21.234Z,0.80
2023-06-23T13:40:49.453Z,0.82
2023-06-23T13:43:17.721Z,0.85
2023-06-23T13:45:45.932Z,2.58
2023-06-23T13:48:14.166Z,1.33
2023-06-23T13:50:42.409Z,1.00
2023-06-23T13:53:11.848Z,1.52
2023-06-23T13:55:40.668Z,1.75
2023-06-23T13:58:09.124Z,2.00
2023-06-23T14:00:37.405Z,1.00
2023-06-23T14:03:05.580Z,0.90
2023-06-23T14:05:44.415Z,1.17
2023-06-23T14:08:21.942Z,1.30
2023-06-23T14:10:50.179Z,2.05
2023-06-23T14:13:18.366Z,1.42
2023-06-23T14:15:46.611Z,2.38
2023-06-23T14:18:15.355Z,1.35
2023-06-23T14:20:45.906Z,2.47
2023-06-23T14:23:14.876Z,0.85
2023-06-23T14:25:44.582Z,1.08
2023-06-23T14:28:12.884Z,0.60
2023-06-23T14:30:41.043Z,2.53
2023-06-23T14:33:09.913Z,4.03
2023-06-23T14:35:38.114Z,1.30
2023-06-23T14:38:07.280Z,0.98
2023-06-23T14:40:35.761Z,0.75
2023-06-23T14:43:05.593Z,0.82
2023-06-23T14:45:35.615Z,2.95
2023-06-23T14:48:04.238Z,1.17
2023-06-23T14:50:32.496Z,4.70
2023-06-23T14:53:00.791Z,2.95
2023-06-23T14:55:31.029Z,2.78
2023-06-23T14:57:59.824Z,5.28
2023-06-23T15:00:30.122Z,3.67
2023-06-23T15:02:58.555Z,3.17
2023-06-23T15:05:26.714Z,3.15
2023-06-23T15:07:56.924Z,2.65
2023-06-23T15:10:25.230Z,2.70
2023-06-23T15:12:53.460Z,3.17
2023-06-23T15:15:21.750Z,3.28
2023-06-23T15:17:51.291Z,2.20
2023-06-23T15:20:19.454Z,2.78
2023-06-23T15:22:48.004Z,2.50
2023-06-23T15:25:16.283Z,7.35
2023-06-23T15:27:44.562Z,3.28
2023-06-23T15:30:13.918Z,4.53
2023-06-23T15:32:41.981Z,3.30
2023-06-23T15:35:11.914Z,3.15
2023-06-23T15:37:41.515Z,3.15
2023-06-23T15:40:11.920Z,2.40
2023-06-23T15:42:40.990Z,4.10
2023-06-23T15:45:10.152Z,2.90
2023-06-23T15:47:38.378Z,2.17
2023-06-23T15:50:07.347Z,3.10
2023-06-23T15:52:37.415Z,2.83
2023-06-23T15:55:06.001Z,3.78
2023-06-23T15:57:34.134Z,5.07
2023-06-23T16:00:02.254Z,2.10
2023-06-23T16:02:33.349Z,3.10
2023-06-23T16:05:01.752Z,2.80
2023-06-23T16:07:30.153Z,2.55
2023-06-23T16:09:59.848Z,2.72
2023-06-23T16:12:27.914Z,2.65
2023-06-23T16:14:57.892Z,2.30
2023-06-23T16:17:25.992Z,2.55
2023-06-23T16:19:54.425Z,1.95
2023-06-23T16:22:22.633Z,1.95
2023-06-23T16:24:50.918Z,5.03
2023-06-23T16:27:20.399Z,3.17
2023-06-23T16:29:48.896Z,1.98
2023-06-23T16:32:17.209Z,3.08
2023-06-23T16:34:45.781Z,3.10
2023-06-23T16:37:13.935Z,2.47
2023-06-23T16:39:42.021Z,3.00
2023-06-23T16:42:10.293Z,2.33
2023-06-23T16:44:42.590Z,2.00
2023-06-23T16:47:11.368Z,6.75
2023-06-23T16:49:39.904Z,1.45
2023-06-23T16:52:10.596Z,1.60
2023-06-23T16:54:39.190Z,1.75
2023-06-23T16:57:10.122Z,3.00
2023-06-23T16:59:40.045Z,1.52
2023-06-23T17:02:09.360Z,2.13
2023-06-23T17:04:38.395Z,1.42
2023-06-23T17:07:07.910Z,1.95
2023-06-23T17:09:36.128Z,1.45
2023-06-23T17:12:17.950Z,1.10
2023-06-23T17:14:50.019Z,1.42
2023-06-23T17:17:18.476Z,0.95
2023-06-23T17:19:46.759Z,0.80
2023-06-23T17:22:16.141Z,1.23
2023-06-23T17:24:46.993Z,1.50
2023-06-23T17:27:15.174Z,1.02
2023-06-23T17:29:43.557Z,1.50
2023-06-23T17:32:13.413Z,1.80
2023-06-23T17:34:41.656Z,0.52
2023-06-23T17:37:09.936Z,1.40
2023-06-23T17:39:38.185Z,0.45
2023-06-23T17:42:06.817Z,1.15
2023-06-23T17:44:35.030Z,0.52
2023-06-23T17:47:05.134Z,0.73
2023-06-23T17:49:37.686Z,0.73
2023-06-23T17:52:06.758Z,0.70
2023-06-23T17:54:35.881Z,0.65
2023-06-23T17:57:04.368Z,0.47
2023-06-23T17:59:32.621Z,0.52
2023-06-23T18:02:02.394Z,0.95
2023-06-23T18:04:30.618Z,0.50
2023-06-23T18:07:00.310Z,0.60
2023-06-23T18:09:28.442Z,0.60
2023-06-23T18:11:56.920Z,1.40
2023-06-23T18:14:25.311Z,4.47
2023-06-23T18:16:53.519Z,0.77
2023-06-23T18:19:25.376Z,2.70
2023-06-23T18:21:54.166Z,1.13
2023-06-23T18:24:23.933Z,0.75
2023-06-23T18:26:53.142Z,0.73
2023-06-23T18:29:21.419Z,0.70
2023-06-23T18:32:23.192Z,0.70
2023-06-23T18:35:03.655Z,0.80
2023-06-23T18:37:31.890Z,0.82
2023-06-23T18:40:02.007Z,3.15
2023-06-23T18:42:31.090Z,0.52
2023-06-23T18:44:59.238Z,1.90
2023-06-23T18:47:28.126Z,0.60
2023-06-23T18:49:56.329Z,0.63
2023-06-23T18:52:24.614Z,0.43
2023-06-23T18:54:54.636Z,3.60
2023-06-23T18:57:25.047Z,0.52
2023-06-23T18:59:53.971Z,0.32
2023-06-23T19:02:23.251Z,0.65
2023-06-23T19:04:51.856Z,0.55
2023-06-23T19:07:20.316Z,0.50
2023-06-23T19:09:48.542Z,0.73
2023-06-23T19:12:16.699Z,3.80
2023-06-23T19:14:46.172Z,0.98
2023-06-23T19:17:14.657Z,0.52
2023-06-23T19:19:43.017Z,0.43
2023-06-23T19:22:11.475Z,0.70
2023-06-23T19:24:40.209Z,0.50
2023-06-23T19:27:09.261Z,0.45
2023-06-23T19:29:37.696Z,0.55
2023-06-23T19:32:08.194Z,0.50
2023-06-23T19:34:36.517Z,0.52
2023-06-23T19:37:05.068Z,0.65
2023-06-23T19:39:35.353Z,4.90
2023-06-23T19:42:07.732Z,0.65
2023-06-23T19:44:35.853Z,2.72
2023-06-23T19:47:04.076Z,0.57
2023-06-23T19:49:33.596Z,0.85
2023-06-23T19:52:02.173Z,0.52
2023-06-23T19:54:30.345Z,0.52
2023-06-23T19:56:58.621Z,2.25
2023-06-23T19:59:26.741Z,0.68
2023-06-23T20:01:55.136Z,0.63
2023-06-23T20:04:23.260Z,0.80
2023-06-23T20:06:52.898Z,0.70
2023-06-23T20:09:21.034Z,2.15
2023-06-23T20:11:49.197Z,0.60
2023-06-23T20:14:17.342Z,0.93
2023-06-23T20:16:45.522Z,0.93
2023-06-23T20:19:13.980Z,0.43
2023-06-23T20:21:44.353Z,1.67
2023-06-23T20:24:15.048Z,0.52
2023-06-23T20:26:43.473Z,0.88
2023-06-23T20:29:11.931Z,0.80
2023-06-23T20:31:40.091Z,0.70
2023-06-23T20:34:08.197Z,0.80
2023-06-23T20:36:37.925Z,0.88
2023-06-23T20:39:06.505Z,1.92
2023-06-23T20:41:36.084Z,0.52
2023-06-23T20:44:04.382Z,0.77
2023-06-23T20:46:33.101Z,2.90
2023-06-23T20:49:01.206Z,0.52
2023-06-23T20:51:29.358Z,0.82
2023-06-23T20:53:57.554Z,0.85
2023-06-23T20:56:25.974Z,0.65
2023-06-23T20:58:55.744Z,0.85
2023-06-23T21:01:24.055Z,0.85
2023-06-23T21:03:52.300Z,0.90
2023-06-23T21:06:20.733Z,1.40
2023-06-23T21:08:48.801Z,0.73
2023-06-23T21:11:17.053Z,0.70
2023-06-23T21:13:45.324Z,1.00
2023-06-23T21:16:15.025Z,6.30
2023-06-23T21:18:43.203Z,0.68
2023-06-23T21:21:12.700Z,0.60
2023-06-23T21:23:40.816Z,0.60
2023-06-23T21:26:09.072Z,1.73
2023-06-23T21:28:39.097Z,3.30
2023-06-23T21:31:07.417Z,0.75
2023-06-23T21:33:36.867Z,1.00
2023-06-23T21:36:05.544Z,0.95
2023-06-23T21:38:33.667Z,0.75
2023-06-23T21:41:01.812Z,0.88
2023-06-23T21:43:30.028Z,0.82
2023-06-23T21:45:58.590Z,0.90
2023-06-23T21:48:26.712Z,0.68
2023-06-23T21:50:56.139Z,0.60
2023-06-23T21:53:24.265Z,2.05
2023-06-23T21:55:52.703Z,1.17
2023-06-23T21:58:21.218Z,1.02
2023-06-23T22:00:49.297Z,2.10
2023-06-23T22:03:17.809Z,1.10
2023-06-23T22:05:46.199Z,1.05
2023-06-23T22:08:15.701Z,1.33
2023-06-23T22:10:43.732Z,1.20
2023-06-23T22:13:11.868Z,1.02
2023-06-23T22:15:39.926Z,1.25
2023-06-23T22:18:08.386Z,1.23
2023-06-23T22:20:38.816Z,1.42
2023-06-23T22:23:07.738Z,1.60
2023-06-23T22:25:37.221Z,1.05
2023-06-23T22:28:05.682Z,1.05
2023-06-23T22:30:34.172Z,1.38
2023-06-23T22:33:02.862Z,1.55
2023-06-23T22:35:31.006Z,1.30
2023-06-23T22:37:59.015Z,2.13
2023-06-23T22:42:56.328Z,2.67
2023-06-23T22:45:24.399Z,3.80
2023-06-23T22:47:52.494Z,1.23
2023-06-23T22:50:20.578Z,1.77
2023-06-23T22:55:17.049Z,1.05
2023-06-23T22:57:45.992Z,3.50
2023-06-23T23:00:17.114Z,1.17
2023-06-23T23:02:45.361Z,0.90
2023-06-23T23:05:13.581Z,0.98
2023-06-23T23:07:41.674Z,1.58
2023-06-23T23:12:40.056Z,1.13
2023-06-23T23:15:09.142Z,2.20
2023-06-23T23:17:38.885Z,1.27
2023-06-23T23:20:10.891Z,1.90
2023-06-23T23:22:39.437Z,1.48
2023-06-23T23:25:09.209Z,1.45
2023-06-23T23:27:39.380Z,1.35
2023-06-23T23:30:09.330Z,1.35
2023-06-23T23:32:39.729Z,1.00
2023-06-23T23:35:11.526Z,1.35
2023-06-23T23:37:41.025Z,1.83
2023-06-23T23:40:12.338Z,1.08
2023-06-23T23:42:40.939Z,1.35
2023-06-23T23:45:10.067Z,1.90
2023-06-23T23:47:39.897Z,1.05
2023-06-23T23:50:09.347Z,1.67
2023-06-23T23:52:37.742Z,1.00
2023-06-23T23:55:06.500Z,1.98
2023-06-23T23:57:34.783Z,1.38
